Time;durP1;ratioP1;P1;durP2;ratioP2;P2;SDS_P1;SDS_P2;PMS_P1;PMS_P2;Temp;Humidity;BMP_temperature;BMP_pressure;BME280_temperature;BME280_humidity;BME280_pressure;Samples;Min_cycle;Max_cycle;Signal;HPM_P1;HPM_P2
2021/11/17 02:26:40;;;;;;;12.23;10.93;;;;;;;5.18;92.24;100936.03;5024289;28;20251;-78
2021/11/17 02:29:25;;;;;;;13.00;11.70;;;;;;;5.12;92.85;100909.22;5022126;28;20217;-78
2021/11/17 02:32:08;;;;;;;15.27;11.47;;;;;;;4.70;93.44;100889.78;5022731;28;20256;-77
2021/11/17 02:34:49;;;;;;;14.37;12.27;;;;;;;4.58;93.66;100872.38;5021242;28;20230;-77
2021/11/17 02:37:31;;;;;;;14.43;11.80;;;;;;;4.64;93.99;100856.94;5023623;28;20253;-77
2021/11/17 02:40:17;;;;;;;14.73;12.23;;;;;;;4.61;93.91;100843.09;5021458;28;20214;-78
2021/11/17 02:43:03;;;;;;;13.73;12.07;;;;;;;4.56;94.14;100843.06;5021227;28;20215;-78
2021/11/17 02:45:46;;;;;;;14.77;12.53;;;;;;;4.45;95.12;100811.91;5022821;28;20279;-78
2021/11/17 02:48:28;;;;;;;14.43;11.37;;;;;;;4.40;95.71;100799.75;5023946;28;20823;-77
2021/11/17 02:51:12;;;;;;;14.63;11.63;;;;;;;4.44;96.00;100789.50;5021132;28;20226;-77
2021/11/17 02:53:53;;;;;;;14.03;12.40;;;;;;;4.48;95.67;100778.34;5022494;28;20206;-77
2021/11/17 02:56:37;;;;;;;15.67;12.33;;;;;;;4.66;96.01;100776.78;5021498;28;20218;-77
2021/11/17 02:59:24;;;;;;;13.90;11.33;;;;;;;4.59;94.35;100809.47;5024668;28;20201;-77
2021/11/17 03:02:15;;;;;;;11.17;10.07;;;;;;;4.61;93.75;100835.34;5023084;28;20238;-76
2021/11/17 03:05:01;;;;;;;13.43;11.63;;;;;;;4.60;94.12;100838.78;5023424;28;20221;-78
2021/11/17 03:07:40;;;;;;;13.67;10.87;;;;;;;4.70;93.57;100843.22;5019891;28;20213;-78
2021/11/17 03:10:32;;;;;;;9.40;8.50;;;;;;;4.71;92.71;100863.91;5019664;28;20600;-77
2021/11/17 03:13:17;;;;;;;10.93;9.10;;;;;;;4.65;92.11;100896.59;5024114;28;20226;-78
2021/11/17 03:15:57;;;;;;;10.60;9.50;;;;;;;4.60;91.61;100893.94;5026558;28;20252;-77
2021/11/17 03:18:36;;;;;;;10.03;9.03;;;;;;;4.56;92.08;100894.75;5026469;28;20212;-77
2021/11/17 03:21:33;;;;;;;10.47;8.77;;;;;;;4.63;92.15;100895.69;5027249;28;20236;-77
2021/11/17 03:24:15;;;;;;;10.30;9.30;;;;;;;4.64;92.27;100894.84;5026358;28;20706;-77
2021/11/17 03:26:55;;;;;;;11.17;9.60;;;;;;;4.71;92.59;100882.00;5024127;28;20697;-77
2021/11/17 03:29:53;;;;;;;11.37;9.87;;;;;;;4.66;92.30;100873.34;5024975;28;20225;-78
2021/11/17 03:32:36;;;;;;;11.43;9.33;;;;;;;4.63;92.84;100870.72;5024183;28;20772;-77
2021/11/17 03:35:27;;;;;;;11.60;9.70;;;;;;;4.64;93.11;100854.34;5025173;28;20244;-77
2021/11/17 03:38:12;;;;;;;10.97;9.77;;;;;;;4.48;93.50;100849.81;5012959;28;20268;-76
2021/11/17 03:41:04;;;;;;;10.87;9.47;;;;;;;4.54;92.83;100845.63;5023716;28;20321;-77
2021/11/17 03:44:02;;;;;;;9.53;8.27;;;;;;;4.57;92.77;100858.56;5022442;28;20223;-77
2021/11/17 03:46:48;;;;;;;11.00;8.83;;;;;;;4.63;92.68;100859.50;5026851;28;20614;-77
2021/11/17 03:49:44;;;;;;;12.57;9.27;;;;;;;4.66;92.62;100875.94;5025596;28;20201;-77
2021/11/17 03:52:23;;;;;;;10.87;8.77;;;;;;;4.56;92.66;100872.34;5024382;28;20231;-77
2021/11/17 03:55:12;;;;;;;12.43;9.47;;;;;;;4.62;92.70;100870.69;5025976;28;20260;-77
2021/11/17 03:57:51;;;;;;;10.40;9.30;;;;;;;4.55;92.28;100869.75;5023647;28;20202;-78
2021/11/17 04:00:48;;;;;;;10.23;9.00;;;;;;;4.43;92.96;100861.84;5024496;28;20210;-78
2021/11/17 04:03:29;;;;;;;11.57;9.93;;;;;;;4.47;92.93;100853.28;5021665;28;20214;-77
2021/11/17 04:06:07;;;;;;;11.13;8.93;;;;;;;4.47;92.95;100854.13;5023011;28;20203;-77
2021/11/17 04:08:46;;;;;;;12.20;11.00;;;;;;;4.46;93.41;100844.66;5023422;28;20231;-76
2021/11/17 04:11:24;;;;;;;11.53;10.03;;;;;;;4.44;92.66;100871.31;5021246;28;20230;-77
2021/11/17 04:14:01;;;;;;;10.57;8.73;;;;;;;4.51;92.66;100871.41;5024046;28;20225;-77
2021/11/17 04:16:40;;;;;;;14.53;9.97;;;;;;;4.57;92.08;100883.56;5025345;28;20261;-77
2021/11/17 04:19:20;;;;;;;9.50;8.57;;;;;;;4.60;92.03;100887.88;5024848;28;20266;-77
2021/11/17 04:22:03;;;;;;;10.13;8.93;;;;;;;4.63;92.08;100895.69;5024052;28;20238;-77
2021/11/17 04:24:45;;;;;;;12.07;9.93;;;;;;;4.60;91.81;100901.72;5026418;28;20201;-77
2021/11/17 04:27:24;;;;;;;11.23;8.37;;;;;;;4.51;91.51;100909.34;5025500;28;20258;-77
2021/11/17 04:30:09;;;;;;;11.87;8.80;;;;;;;4.54;91.95;100904.22;5023906;28;20268;-76
2021/11/17 04:32:59;;;;;;;10.00;9.00;;;;;;;4.53;91.77;100895.56;5021951;28;21113;-77
2021/11/17 04:35:50;;;;;;;10.53;9.47;;;;;;;4.53;91.47;100900.75;5024446;28;20223;-77
2021/11/17 04:38:38;;;;;;;14.30;9.10;;;;;;;4.46;92.07;100892.88;5024554;28;20606;-78
2021/11/17 04:41:35;;;;;;;12.17;9.93;;;;;;;4.46;92.97;100877.38;5025857;28;20226;-77
2021/11/17 04:44:18;;;;;;;11.97;9.03;;;;;;;4.45;92.87;100861.00;5022096;28;20735;-78
2021/11/17 04:47:02;;;;;;;14.83;11.10;;;;;;;4.42;92.68;100862.69;5024701;28;20191;-77
2021/11/17 04:49:58;;;;;;;12.30;10.03;;;;;;;4.28;93.20;100852.16;5024431;28;20731;-78
2021/11/17 04:52:39;;;;;;;13.53;10.17;;;;;;;4.38;93.55;100835.94;5023649;28;20282;-78
2021/11/17 04:55:20;;;;;;;15.13;11.00;;;;;;;4.41;93.84;100835.97;5022773;28;20346;-77
2021/11/17 04:58:03;;;;;;;13.70;10.57;;;;;;;4.48;93.58;100844.66;5023772;28;20272;-77
2021/11/17 05:00:44;;;;;;;12.13;10.87;;;;;;;4.46;92.77;100870.50;5023831;28;20201;-77
2021/11/17 05:03:26;;;;;;;11.27;10.07;;;;;;;4.31;92.76;100894.41;5023830;28;20200;-77
2021/11/17 05:06:05;;;;;;;12.87;11.10;;;;;;;4.34;92.62;100878.06;5023883;28;20198;-77
2021/11/17 05:08:41;;;;;;;16.40;11.73;;;;;;;4.38;92.77;100878.16;5025206;28;20205;-78
2021/11/17 05:11:20;;;;;;;13.70;12.17;;;;;;;4.30;93.61;100868.53;5024820;28;20238;-78
2021/11/17 05:13:55;;;;;;;15.03;11.97;;;;;;;4.30;93.97;100846.19;5023354;28;20212;-77
2021/11/17 05:16:37;;;;;;;14.87;13.37;;;;;;;4.20;94.31;100838.28;5025052;28;20734;-78
2021/11/17 05:19:12;;;;;;;16.70;13.10;;;;;;;4.33;93.90;100847.94;5023554;28;20234;-77
2021/11/17 05:21:56;;;;;;;15.67;13.43;;;;;;;4.31;92.84;100881.50;5022338;28;20844;-77
2021/11/17 05:24:41;;;;;;;15.87;13.17;;;;;;;4.37;92.81;100891.06;5022911;28;20199;-77
2021/11/17 05:27:21;;;;;;;16.83;15.03;;;;;;;4.45;92.67;100893.75;5021752;28;20680;-78
2021/11/17 05:30:07;;;;;;;20.70;16.97;;;;;;;4.33;93.15;100891.84;5024170;28;20201;-77
2021/11/17 05:32:53;;;;;;;25.13;17.83;;;;;;;4.29;93.54;100870.28;5023233;28;20629;-77
2021/11/17 05:35:32;;;;;;;23.00;16.63;;;;;;;4.26;93.50;100852.16;5022551;28;20313;-78
2021/11/17 05:38:11;;;;;;;24.17;17.07;;;;;;;4.34;93.85;100845.38;5019839;28;20252;-78
2021/11/17 05:40:53;;;;;;;27.97;18.60;;;;;;;4.29;94.27;100854.75;5024993;28;20231;-77
2021/11/17 05:43:32;;;;;;;26.33;18.10;;;;;;;4.31;94.10;100850.47;5024687;28;20604;-78
2021/11/17 05:46:19;;;;;;;29.30;18.47;;;;;;;4.29;94.74;100839.25;5022353;28;20393;-77
2021/11/17 05:48:56;;;;;;;27.03;18.13;;;;;;;4.28;94.56;100832.38;5023556;28;20620;-77
2021/11/17 05:51:39;;;;;;;26.63;18.10;;;;;;;4.16;95.12;100821.84;5024543;28;20228;-79
2021/11/17 05:54:19;;;;;;;28.50;18.70;;;;;;;4.18;95.51;100802.97;5022205;28;20204;-77
2021/11/17 05:57:15;;;;;;;32.57;18.33;;;;;;;4.31;95.47;100787.59;5023732;28;20201;-78
2021/11/17 06:00:15;;;;;;;22.90;16.67;;;;;;;4.48;95.61;100796.44;5022736;28;20692;-79
2021/11/17 06:02:47;;;;;;;18.73;15.87;;;;;;;4.62;94.88;100806.94;5013172;28;20224;-78
2021/11/17 06:05:13;;;;;;;16.83;15.00;;;;;;;4.75;93.96;100829.47;5024332;28;20287;-78
2021/11/17 06:07:39;;;;;;;18.60;15.77;;;;;;;4.86;93.66;100845.13;5021628;28;20211;-78
2021/11/17 06:10:11;;;;;;;17.33;15.43;;;;;;;4.95;93.27;100865.03;5021324;28;20255;-78
2021/11/17 06:12:38;;;;;;;20.10;16.43;;;;;;;5.02;92.58;100890.13;5019545;28;20262;-78
2021/11/17 06:15:07;;;;;;;19.50;16.40;;;;;;;5.12;92.47;100899.72;5022581;28;20474;-79
2021/11/17 06:17:34;;;;;;;19.23;15.97;;;;;;;5.16;91.85;100913.56;5023484;28;20246;-78
2021/11/17 06:20:01;;;;;;;21.80;17.13;;;;;;;5.18;91.53;100938.59;5021211;28;20208;-78
2021/11/17 06:22:30;;;;;;;17.73;15.10;;;;;;;5.00;90.87;100953.94;5022825;28;20233;-78
2021/11/17 06:25:00;;;;;;;21.57;16.07;;;;;;;5.11;90.42;100964.38;5022536;28;20216;-78
2021/11/17 06:27:32;;;;;;;18.37;15.77;;;;;;;5.00;90.64;100974.63;5024048;28;20207;-79
2021/11/17 06:30:01;;;;;;;20.03;16.63;;;;;;;5.10;90.29;100965.25;5022203;28;20213;-79
2021/11/17 06:32:29;;;;;;;18.73;16.73;;;;;;;4.96;91.02;100968.53;5021052;28;20224;-79
2021/11/17 06:34:57;;;;;;;21.30;17.13;;;;;;;5.05;90.70;100983.28;5022521;28;20309;-78
2021/11/17 06:37:26;;;;;;;25.43;17.40;;;;;;;4.81;91.49;100964.88;5024370;28;20704;-78
2021/11/17 06:39:54;;;;;;;25.90;18.67;;;;;;;4.84;91.60;100944.25;5021520;28;20274;-78
2021/11/17 06:42:23;;;;;;;28.13;19.20;;;;;;;4.97;91.80;100933.19;5020766;28;20687;-78
2021/11/17 06:44:51;;;;;;;24.93;19.20;;;;;;;5.05;91.22;100941.03;5021838;28;20268;-79
2021/11/17 06:47:18;;;;;;;28.13;18.50;;;;;;;5.09;90.93;100948.84;5015870;28;20210;-78
2021/11/17 06:49:45;;;;;;;27.83;18.60;;;;;;;5.17;90.98;100956.69;5017388;28;20212;-78
2021/11/17 06:52:12;;;;;;;27.30;17.70;;;;;;;5.18;90.59;100964.50;5021022;28;20634;-78
2021/11/17 06:54:38;;;;;;;23.40;17.37;;;;;;;5.13;90.56;100976.53;5022360;28;20228;-78
2021/11/17 06:57:05;;;;;;;19.17;16.40;;;;;;;5.03;90.53;100982.41;5017948;28;20267;-78
2021/11/17 06:59:32;;;;;;;18.27;15.73;;;;;;;4.99;90.65;100983.22;5018202;28;20877;-78
2021/11/17 07:02:05;;;;;;;21.10;16.77;;;;;;;4.91;90.76;100979.66;5016653;28;20775;-78
2021/11/17 07:04:32;;;;;;;20.77;16.83;;;;;;;5.00;91.10;100978.94;5024295;28;20632;-78
2021/11/17 07:06:58;;;;;;;19.07;15.40;;;;;;;4.80;91.22;100983.81;5020192;28;20212;-78
2021/11/17 07:09:25;;;;;;;16.97;15.17;;;;;;;4.64;92.36;100939.69;5021196;28;20199;-77
2021/11/17 07:11:51;;;;;;;19.80;15.57;;;;;;;4.78;92.60;100925.22;5025500;28;20228;-77
2021/11/17 07:14:21;;;;;;;22.67;15.40;;;;;;;4.81;93.16;100915.75;5026630;28;20214;-78
2021/11/17 07:16:48;;;;;;;24.33;16.17;;;;;;;4.71;93.85;100892.34;5019589;28;20220;-77
2021/11/17 07:19:16;;;;;;;22.57;16.20;;;;;;;4.85;93.85;100881.31;5019035;28;20218;-77
2021/11/17 07:21:44;;;;;;;22.53;16.83;;;;;;;4.92;93.95;100876.22;5024374;28;20731;-78
2021/11/17 07:24:11;;;;;;;22.90;14.90;;;;;;;5.04;93.42;100878.09;5019952;28;20218;-78
2021/11/17 07:26:38;;;;;;;20.80;15.43;;;;;;;5.01;93.38;100880.63;5021313;28;20222;-78
2021/11/17 07:29:04;;;;;;;20.23;14.70;;;;;;;4.74;93.58;100891.53;5024640;28;20224;-77
2021/11/17 07:31:31;;;;;;;18.90;14.03;;;;;;;4.86;94.42;100863.22;5022557;28;20256;-78
2021/11/17 07:33:57;;;;;;;20.20;14.27;;;;;;;4.97;94.30;100871.97;5021430;28;20664;-78
2021/11/17 07:36:25;;;;;;;19.47;14.00;;;;;;;4.99;93.68;100869.38;5019408;28;20288;-78
2021/11/17 07:38:52;;;;;;;15.87;13.40;;;;;;;5.00;93.50;100876.31;5021498;28;20670;-79
2021/11/17 07:41:18;;;;;;;16.63;13.33;;;;;;;4.93;93.59;100880.53;5023615;28;20286;-79
2021/11/17 07:43:44;;;;;;;17.73;13.57;;;;;;;4.86;93.13;100878.75;5022374;28;20264;-77
2021/11/17 07:46:11;;;;;;;14.47;12.90;;;;;;;4.92;93.07;100880.53;5022011;28;20276;-81
2021/11/17 07:48:38;;;;;;;16.33;13.30;;;;;;;4.96;93.33;100878.00;5022683;28;20216;-78
2021/11/17 07:51:05;;;;;;;14.03;12.57;;;;;;;4.73;93.47;100874.28;5023035;28;20251;-79
2021/11/17 07:53:34;;;;;;;13.33;11.80;;;;;;;4.82;93.90;100852.84;5022598;28;20210;-80
2021/11/17 07:56:02;;;;;;;13.27;11.93;;;;;;;4.89;93.67;100841.69;5020675;28;20223;-78
2021/11/17 07:58:33;;;;;;;12.43;10.50;;;;;;;4.96;93.42;100852.13;5025189;28;20204;-80
2021/11/17 08:01:00;;;;;;;11.70;10.47;;;;;;;4.94;93.54;100834.88;5022589;28;20433;-81
2021/11/17 08:03:31;;;;;;;13.00;10.53;;;;;;;4.91;93.88;100832.22;5024223;28;20861;-78
2021/11/17 08:05:59;;;;;;;13.13;11.33;;;;;;;5.06;93.70;100837.56;5024568;28;20666;-78
2021/11/17 08:08:28;;;;;;;11.33;10.13;;;;;;;5.13;93.59;100841.97;5026174;28;20211;-77
2021/11/17 08:10:56;;;;;;;10.23;9.23;;;;;;;5.10;93.03;100854.00;5026659;28;20729;-78
2021/11/17 08:13:23;;;;;;;10.37;9.30;;;;;;;5.14;92.82;100853.19;5025687;28;20217;-81
2021/11/17 08:15:49;;;;;;;10.07;9.07;;;;;;;5.14;92.73;100853.19;5025225;28;20256;-80
2021/11/17 08:18:16;;;;;;;11.13;8.67;;;;;;;5.10;92.30;100851.41;5023341;28;20686;-77
2021/11/17 08:20:43;;;;;;;9.33;8.33;;;;;;;5.03;92.24;100871.16;5018804;28;20227;-77
2021/11/17 08:23:09;;;;;;;9.93;8.93;;;;;;;5.04;92.34;100883.25;5029234;28;20278;-79
2021/11/17 08:25:38;;;;;;;9.97;8.93;;;;;;;5.06;91.90;100893.63;5024242;28;20352;-77
2021/11/17 08:28:09;;;;;;;11.10;9.70;;;;;;;4.83;92.50;100889.03;5025162;28;20303;-83
2021/11/17 08:30:36;;;;;;;11.87;10.63;;;;;;;4.87;92.61;100877.03;5020790;28;20203;-80
2021/11/17 08:33:04;;;;;;;11.00;9.90;;;;;;;4.97;92.54;100878.84;5022183;28;20205;-81
2021/11/17 08:35:31;;;;;;;10.70;9.57;;;;;;;4.97;92.53;100877.16;5022612;28;20229;-80
2021/11/17 08:37:59;;;;;;;11.10;9.57;;;;;;;4.95;92.66;100884.00;5026681;28;20207;-78
2021/11/17 08:40:28;;;;;;;10.17;9.17;;;;;;;4.83;92.94;100894.22;5015473;28;20256;-76
2021/11/17 08:42:55;;;;;;;12.17;10.27;;;;;;;4.68;93.37;100888.88;5018746;28;20209;-80
2021/11/17 08:45:24;;;;;;;9.43;8.43;;;;;;;4.82;93.16;100876.97;5024710;28;20210;-80
2021/11/17 08:47:51;;;;;;;9.90;8.53;;;;;;;4.91;93.43;100868.44;5023631;28;20239;-80
2021/11/17 08:50:21;;;;;;;9.17;8.20;;;;;;;5.02;92.90;100877.19;5019816;28;20264;-76
2021/11/17 08:52:48;;;;;;;10.07;9.10;;;;;;;5.01;93.43;100884.94;5018751;28;20245;-78
2021/11/17 08:55:14;;;;;;;10.03;9.13;;;;;;;5.18;92.60;100894.63;5020971;28;20209;-79
2021/11/17 08:57:42;;;;;;;9.90;8.90;;;;;;;5.25;92.77;100897.25;5023724;28;20235;-79
2021/11/17 09:00:10;;;;;;;10.80;9.57;;;;;;;5.31;92.38;100910.25;5028087;28;20681;-81
2021/11/17 09:02:40;;;;;;;10.10;9.10;;;;;;;5.27;nan;100892.97;5027323;28;20279;-80
2021/11/17 09:05:10;;;;;;;11.90;8.93;;;;;;;5.43;93.29;100881.94;5025369;28;20214;-80
2021/11/17 09:07:36;;;;;;;10.10;9.10;;;;;;;5.61;93.15;100880.34;5024339;28;20205;-79
2021/11/17 09:10:03;;;;;;;8.70;7.90;;;;;;;5.72;92.46;100883.88;5024697;28;20204;-82
2021/11/17 09:12:29;;;;;;;9.17;8.37;;;;;;;5.70;91.67;100914.09;5023418;28;20244;-79
2021/11/17 09:14:56;;;;;;;9.90;9.00;;;;;;;5.48;92.37;100918.22;5026153;28;20721;-81
2021/11/17 09:17:22;;;;;;;10.73;9.73;;;;;;;5.63;91.51;100907.09;5025282;28;20295;-81
2021/11/17 09:19:50;;;;;;;10.63;9.57;;;;;;;5.73;91.94;100903.78;5024353;28;20271;-82
2021/11/17 09:22:16;;;;;;;9.97;9.07;;;;;;;5.63;90.66;100930.41;5024456;28;20233;-82
2021/11/17 09:24:43;;;;;;;10.17;9.27;;;;;;;5.37;90.61;100942.28;5023425;28;20285;-80
2021/11/17 09:27:10;;;;;;;8.87;8.17;;;;;;;5.51;91.47;100923.41;5022923;28;20212;-80
2021/11/17 09:29:37;;;;;;;8.47;7.70;;;;;;;5.64;90.75;100939.94;5024286;28;20206;-82
2021/11/17 09:32:05;;;;;;;7.80;7.10;;;;;;;5.83;90.51;100948.72;5027189;28;20731;-79
2021/11/17 09:34:32;;;;;;;7.63;6.93;;;;;;;5.86;90.74;100967.75;5024772;28;20208;-82
2021/11/17 09:37:03;;;;;;;8.17;7.40;;;;;;;6.03;90.26;100985.22;5026385;28;20238;-83
2021/11/17 09:39:29;;;;;;;10.63;9.60;;;;;;;5.92;89.56;100998.03;5024810;28;20629;-82
2021/11/17 09:41:56;;;;;;;8.30;6.97;;;;;;;5.93;89.95;101003.25;5024160;28;20238;-83
2021/11/17 09:44:28;;;;;;;8.17;7.47;;;;;;;5.80;89.60;101018.66;5025662;28;20629;-83
2021/11/17 09:46:56;;;;;;;9.10;8.20;;;;;;;5.87;90.38;101008.38;5026070;28;20202;-83
2021/11/17 09:49:27;;;;;;;8.40;7.70;;;;;;;5.87;89.63;101008.38;5027350;28;20235;-83
2021/11/17 09:51:57;;;;;;;8.53;7.83;;;;;;;5.87;89.88;101002.34;5025764;28;20221;-83
2021/11/17 09:54:29;;;;;;;8.60;7.90;;;;;;;5.99;90.26;100996.44;5024528;28;20219;-83
2021/11/17 09:56:58;;;;;;;10.10;9.10;;;;;;;5.81;89.95;101010.91;5026505;28;20240;-81
2021/11/17 09:59:28;;;;;;;9.53;8.73;;;;;;;5.81;90.17;101015.19;5026043;28;20209;-83
2021/11/17 10:02:03;;;;;;;8.77;8.00;;;;;;;5.92;90.74;101006.69;5025601;28;20287;-83
2021/11/17 10:04:46;;;;;;;9.70;8.80;;;;;;;5.71;91.04;101006.50;5024664;28;20261;-83
2021/11/17 10:07:34;;;;;;;9.77;8.90;;;;;;;5.84;90.85;100986.75;5024402;28;20280;-82
2021/11/17 10:13:02;;;;;;;9.47;8.67;;;;;;;5.86;90.49;100979.84;5024441;28;20274;-82
2021/11/17 10:15:33;;;;;;;9.47;8.53;;;;;;;5.84;90.35;100973.78;5024445;28;20203;-83
2021/11/17 10:18:05;;;;;;;9.17;8.27;;;;;;;5.89;90.98;100962.63;5024133;28;20218;-82
2021/11/17 10:20:36;;;;;;;9.67;8.77;;;;;;;5.75;90.99;100969.41;5024271;28;20205;-82
2021/11/17 10:23:17;;;;;;;10.93;9.67;;;;;;;5.93;90.94;100945.38;5023982;28;20236;-82
2021/11/17 10:25:48;;;;;;;10.03;9.13;;;;;;;5.90;91.04;100961.75;5022035;28;20229;-82
2021/11/17 10:28:22;;;;;;;11.38;10.48;;;;;;;5.88;90.86;100960.88;5021851;28;20854;-83
2021/11/17 10:30:56;;;;;;;10.30;9.30;;;;;;;6.02;90.90;100949.78;5021520;28;20731;-80
2021/11/17 10:33:27;;;;;;;9.83;8.50;;;;;;;6.15;91.08;100947.31;5023705;28;20201;-78
2021/11/17 10:36:01;;;;;;;9.23;8.43;;;;;;;6.24;89.74;100974.16;5022557;28;20232;-79
2021/11/17 10:38:30;;;;;;;8.73;8.03;;;;;;;6.35;89.33;100996.69;5023599;28;20685;-78
2021/11/17 10:41:03;;;;;;;7.93;7.23;;;;;;;6.41;88.54;101014.03;5016921;28;20269;-78
2021/11/17 10:43:32;;;;;;;8.90;8.03;;;;;;;6.41;88.70;101014.03;5014715;28;20210;-78
2021/11/17 10:46:06;;;;;;;8.00;7.30;;;;;;;6.31;88.17;101031.25;5017889;28;20216;-80
2021/11/17 10:48:36;;;;;;;9.33;8.53;;;;;;;6.23;88.95;101032.91;4674274;28;9999783;-79
2021/11/17 10:51:15;;;;;;;9.03;8.10;;;;;;;6.31;88.80;101007.91;5018426;28;20268;-79
2021/11/17 10:53:42;;;;;;;8.27;7.47;;;;;;;6.25;89.06;101001.81;5027493;28;20194;-79
2021/11/17 10:56:14;;;;;;;9.00;8.20;;;;;;;6.30;89.48;100993.22;5029260;28;20226;-77
2021/11/17 10:58:45;;;;;;;9.27;8.37;;;;;;;6.35;89.17;100975.09;5028898;28;20546;-78
2021/11/17 11:01:17;;;;;;;9.47;8.57;;;;;;;6.26;88.91;100999.22;5030288;28;20222;-78
2021/11/17 11:03:47;;;;;;;9.67;8.87;;;;;;;6.43;88.94;100973.44;5030512;28;20213;-79
2021/11/17 11:06:19;;;;;;;8.87;8.03;;;;;;;6.29;89.33;100985.44;5031680;28;20203;-77
2021/11/17 11:08:55;;;;;;;9.83;8.93;;;;;;;6.45;89.35;100991.59;5030569;28;20208;-78
2021/11/17 11:11:23;;;;;;;8.97;8.27;;;;;;;6.43;89.16;101001.09;5032105;28;20228;-80
2021/11/17 11:13:53;;;;;;;9.40;8.50;;;;;;;6.22;89.32;100996.59;5031439;28;20683;-79
2021/11/17 11:16:22;;;;;;;10.07;9.17;;;;;;;6.29;89.40;100957.78;5031125;28;20214;-78
2021/11/17 11:18:55;;;;;;;11.27;10.00;;;;;;;6.42;90.12;100955.25;5030396;28;20213;-77
2021/11/17 11:21:39;;;;;;;9.13;8.30;;;;;;;6.42;89.78;100963.94;5031002;28;20293;-81
2021/11/17 11:24:24;;;;;;;10.70;9.03;;;;;;;6.53;89.19;100962.25;5032006;28;20205;-79
2021/11/17 11:27:13;;;;;;;9.63;8.83;;;;;;;6.53;88.96;100979.53;5030793;28;20214;-79
2021/11/17 11:29:41;;;;;;;10.03;9.13;;;;;;;6.62;89.50;100966.63;5031154;28;20216;-78
2021/11/17 11:32:10;;;;;;;10.00;9.10;;;;;;;6.62;89.17;100965.75;5031207;28;20516;-80
2021/11/17 11:34:46;;;;;;;10.97;9.97;;;;;;;6.68;89.08;100965.78;5034732;28;20209;-79
2021/11/17 11:37:46;;;;;;;11.33;10.10;;;;;;;6.70;89.48;100954.56;5034757;28;20224;-78
2021/11/17 11:40:28;;;;;;;10.97;9.87;;;;;;;6.62;88.91;100973.53;5032764;28;20208;-78
2021/11/17 11:43:25;;;;;;;10.37;9.23;;;;;;;6.67;88.90;100969.25;5033673;28;20214;-80
2021/11/17 11:45:54;;;;;;;11.40;9.50;;;;;;;6.75;89.26;100971.00;5034683;28;20274;-80
2021/11/17 11:48:56;;;;;;;10.20;9.20;;;;;;;6.71;89.18;100969.25;5034700;28;20623;-78
2021/11/17 11:51:52;;;;;;;8.70;7.97;;;;;;;6.57;90.66;100937.19;5034612;28;20285;-78
2021/11/17 11:54:26;;;;;;;9.37;8.47;;;;;;;6.61;91.74;100913.00;5021419;28;20217;-79
2021/11/17 11:57:14;;;;;;;10.73;9.63;;;;;;;6.63;91.84;100903.50;5034250;28;20229;-79
2021/11/17 11:59:43;;;;;;;10.07;9.07;;;;;;;6.60;91.65;100893.13;5033462;28;20271;-80
2021/11/17 12:02:12;;;;;;;9.77;8.77;;;;;;;6.57;91.59;100890.50;5033814;28;20229;-80
2021/11/17 12:04:42;;;;;;;10.30;9.40;;;;;;;6.36;92.21;100870.53;5031997;28;20617;-79
2021/11/17 12:07:13;;;;;;;9.73;8.90;;;;;;;6.41;92.08;100861.06;5037410;28;20214;-82
2021/11/17 12:09:57;;;;;;;10.50;9.40;;;;;;;6.47;92.22;100855.88;5037648;28;20243;-82
2021/11/17 12:12:28;;;;;;;9.63;8.67;;;;;;;6.42;92.31;100857.63;5037689;28;20237;-82
2021/11/17 12:15:14;;;;;;;10.93;9.80;;;;;;;6.42;92.62;100860.19;5038043;28;20212;-82
2021/11/17 12:17:40;;;;;;;9.63;8.60;;;;;;;6.40;92.46;100856.72;5038081;28;20218;-82
2021/11/17 12:20:21;;;;;;;9.83;8.83;;;;;;;6.52;92.85;100850.72;5038564;28;20205;-83
2021/11/17 12:22:50;;;;;;;11.07;10.07;;;;;;;6.52;93.03;100837.75;5039008;28;20189;-82
2021/11/17 12:25:20;;;;;;;11.17;10.10;;;;;;;6.64;93.82;100839.53;5038766;28;20205;-82
2021/11/17 12:27:49;;;;;;;11.40;9.57;;;;;;;6.55;93.21;100840.38;5038492;28;20250;-82
2021/11/17 12:30:33;;;;;;;10.27;9.27;;;;;;;6.57;93.03;100831.72;5037785;28;20221;-82
2021/11/17 12:33:02;;;;;;;10.90;9.60;;;;;;;6.65;92.83;100841.28;5038510;28;20210;-82
2021/11/17 12:35:32;;;;;;;9.80;8.83;;;;;;;6.63;93.50;100851.63;5030490;28;21031;-82
2021/11/17 12:38:01;;;;;;;10.03;9.03;;;;;;;6.51;93.53;100849.00;5038263;28;20299;-82
2021/11/17 12:40:52;;;;;;;9.67;8.67;;;;;;;6.59;93.23;100846.44;5037587;28;20212;-81
2021/11/17 12:43:31;;;;;;;10.17;8.97;;;;;;;6.62;94.00;100855.09;5037596;28;20262;-81
2021/11/17 12:46:08;;;;;;;9.40;8.57;;;;;;;6.70;93.61;100848.22;5032136;28;20197;-82
2021/11/17 12:48:38;;;;;;;11.03;8.33;;;;;;;6.78;93.50;100860.31;5038565;28;20544;-81
2021/11/17 12:51:10;;;;;;;9.63;8.63;;;;;;;6.88;nan;100864.72;5037208;28;20251;-81
2021/11/17 12:53:40;;;;;;;9.40;8.50;;;;;;;6.82;92.56;100867.25;5037672;28;20211;-80
2021/11/17 12:56:15;;;;;;;10.10;9.07;;;;;;;6.83;93.13;100869.00;5036837;28;20216;-80
2021/11/17 12:58:44;;;;;;;13.43;9.13;;;;;;;6.70;93.72;100849.91;5037656;28;20205;-81
2021/11/17 13:01:21;;;;;;;11.10;10.10;;;;;;;6.67;94.43;100836.94;5036209;28;20291;-81
2021/11/17 13:04:18;;;;;;;12.00;10.67;;;;;;;6.65;94.82;100803.22;5036847;28;20845;-81
2021/11/17 13:06:49;;;;;;;12.43;11.13;;;;;;;6.66;95.33;100799.78;5035023;28;20201;-81
2021/11/17 13:09:19;;;;;;;11.93;10.73;;;;;;;6.64;95.38;100816.19;5036084;28;20205;-80
2021/11/17 13:12:14;;;;;;;11.63;10.43;;;;;;;6.68;95.80;100812.72;5037957;28;20225;-80
2021/11/17 13:14:54;;;;;;;13.23;11.73;;;;;;;6.56;96.12;100803.19;5035493;28;20204;-81
2021/11/17 13:17:24;;;;;;;13.87;12.37;;;;;;;6.56;96.80;100783.31;5036108;28;20232;-80
2021/11/17 13:19:53;;;;;;;12.20;11.00;;;;;;;6.62;96.44;100790.25;5035147;28;20201;-80
2021/11/17 13:22:27;;;;;;;13.80;12.07;;;;;;;6.56;97.24;100777.25;5036146;28;20569;-81
2021/11/17 13:25:21;;;;;;;14.00;12.63;;;;;;;6.46;97.93;100750.44;5035377;28;20204;-79
2021/11/17 13:27:50;;;;;;;16.37;11.53;;;;;;;6.52;98.42;100745.28;5032521;28;20238;-80
2021/11/17 13:30:38;;;;;;;12.87;11.57;;;;;;;6.53;97.95;100726.25;5033743;28;20205;-79
2021/11/17 13:33:26;;;;;;;15.47;12.53;;;;;;;6.47;98.87;100718.44;5034348;28;20212;-79
2021/11/17 13:36:07;;;;;;;16.70;11.23;;;;;;;6.47;99.72;100708.06;5034733;28;20198;-79
2021/11/17 13:38:35;;;;;;;12.97;11.67;;;;;;;6.52;99.75;100710.66;5034071;28;20213;-78
2021/11/17 13:41:05;;;;;;;14.03;11.80;;;;;;;6.51;99.52;100716.72;5033621;28;20252;-79
2021/11/17 13:43:33;;;;;;;17.97;12.73;;;;;;;6.44;100.00;100708.09;5034845;28;20229;-79
2021/11/17 13:46:04;;;;;;;16.07;14.07;;;;;;;6.46;100.00;100695.09;5034068;28;20205;-79
2021/11/17 13:48:34;;;;;;;14.60;13.13;;;;;;;6.41;99.92;100687.31;5034635;28;20191;-79
2021/11/17 13:51:01;;;;;;;17.57;13.87;;;;;;;6.43;99.85;100688.19;5033847;28;20237;-79
2021/11/17 13:53:28;;;;;;;15.63;12.10;;;;;;;6.49;100.00;100679.56;5034720;28;20220;-79
2021/11/17 13:55:58;;;;;;;14.13;12.03;;;;;;;6.59;100.00;100678.72;5034624;28;20197;-79
2021/11/17 13:58:26;;;;;;;18.57;12.83;;;;;;;6.57;100.00;100665.72;5027054;28;20241;-79
2021/11/17 14:00:52;;;;;;;13.10;11.73;;;;;;;6.70;100.00;100669.22;5034597;28;20216;-79
2021/11/17 14:03:19;;;;;;;13.47;12.13;;;;;;;6.72;100.00;100674.41;5031878;28;20254;-79
2021/11/17 14:05:49;;;;;;;15.73;13.43;;;;;;;6.70;100.00;100671.81;5034104;28;20201;-80
2021/11/17 14:08:16;;;;;;;13.17;11.63;;;;;;;6.80;100.00;100651.94;5031836;28;20937;-78
2021/11/17 14:10:44;;;;;;;12.83;11.47;;;;;;;6.77;100.00;100664.88;5030071;28;20225;-78
2021/11/17 14:13:10;;;;;;;13.30;11.90;;;;;;;6.84;100.00;100677.00;5032768;28;20218;-77
2021/11/17 14:15:39;;;;;;;14.73;13.23;;;;;;;6.80;100.00;100675.28;5034294;28;20202;-77
2021/11/17 14:18:08;;;;;;;14.43;11.90;;;;;;;6.94;99.54;100688.25;5033766;28;20289;-77
2021/11/17 14:20:34;;;;;;;13.87;12.50;;;;;;;6.93;99.52;100704.66;5024701;28;20233;-77
2021/11/17 14:23:01;;;;;;;13.10;11.80;;;;;;;6.95;99.59;100719.38;5033328;28;20269;-77
2021/11/17 14:25:28;;;;;;;15.97;12.53;;;;;;;6.98;99.03;100715.94;5032797;28;20464;-77